createdAt,value
2023-05-02T00:01:55.907Z,4.45
2023-05-02T00:04:23.597Z,5.57
2023-05-02T00:06:53.223Z,6.07
2023-05-02T00:09:20.614Z,3.75
2023-05-02T00:11:47.984Z,5.18
2023-05-02T00:14:15.164Z,5.68
2023-05-02T00:16:42.316Z,6.95
2023-05-02T00:19:09.428Z,5.90
2023-05-02T00:21:36.465Z,6.15
2023-05-02T00:24:03.599Z,6.10
2023-05-02T00:26:31.116Z,4.93
2023-05-02T00:28:58.934Z,5.53
2023-05-02T00:31:26.231Z,4.78
2023-05-02T00:33:53.349Z,4.65
2023-05-02T00:36:20.467Z,4.68
2023-05-02T00:38:47.649Z,4.35
2023-05-02T00:41:17.488Z,6.03
2023-05-02T00:43:45.054Z,7.68
2023-05-02T00:46:13.520Z,4.97
2023-05-02T00:48:40.815Z,6.22
2023-05-02T00:51:09.157Z,7.65
2023-05-02T00:53:36.449Z,5.53
2023-05-02T00:56:03.825Z,5.30
2023-05-02T00:58:31.335Z,5.55
2023-05-02T01:01:04.379Z,6.43
2023-05-02T01:04:03.902Z,6.63
2023-05-02T01:06:43.286Z,5.28
2023-05-02T01:09:41.436Z,5.30
2023-05-02T01:12:23.695Z,5.18
2023-05-02T01:14:55.904Z,7.97
2023-05-02T01:17:35.535Z,6.65
2023-05-02T01:20:10.204Z,11.30
2023-05-02T01:22:41.098Z,5.07
2023-05-02T01:25:17.428Z,4.90
2023-05-02T01:28:30.829Z,5.47
2023-05-02T01:30:59.621Z,4.95
2023-05-02T01:33:30.649Z,3.80
2023-05-02T01:36:00.264Z,5.72
2023-05-02T01:38:28.710Z,3.90
2023-05-02T01:40:59.013Z,4.80
2023-05-02T01:43:26.923Z,5.07
2023-05-02T01:45:57.178Z,6.70
2023-05-02T01:48:26.342Z,3.65
2023-05-02T01:50:55.017Z,5.88
2023-05-02T01:53:24.016Z,5.80
2023-05-02T01:55:52.926Z,6.80
2023-05-02T01:58:21.703Z,7.22
2023-05-02T02:00:50.704Z,5.15
2023-05-02T02:03:19.193Z,6.35
2023-05-02T02:05:48.723Z,3.95
2023-05-02T02:08:15.866Z,4.65
2023-05-02T02:10:46.758Z,6.53
2023-05-02T02:13:18.586Z,5.10
2023-05-02T02:15:51.178Z,6.25
2023-05-02T02:18:25.321Z,5.18
2023-05-02T02:20:54.142Z,4.68
2023-05-02T02:23:26.016Z,7.05
2023-05-02T02:25:54.733Z,5.40
2023-05-02T02:28:21.984Z,5.40
2023-05-02T02:30:49.184Z,5.22
2023-05-02T02:33:16.326Z,5.45
2023-05-02T02:35:48.543Z,4.60
2023-05-02T02:38:31.821Z,5.95
2023-05-02T02:41:12.419Z,5.20
2023-05-02T02:43:39.564Z,7.10
2023-05-02T02:46:15.280Z,7.22
2023-05-02T02:49:10.409Z,4.88
2023-05-02T02:51:50.962Z,6.10
2023-05-02T02:54:49.220Z,8.57
2023-05-02T03:00:26.098Z,7.15
2023-05-02T03:02:54.791Z,4.70
2023-05-02T03:05:23.335Z,6.55
2023-05-02T03:07:51.453Z,7.45
2023-05-02T03:10:22.717Z,6.35
2023-05-02T03:12:49.965Z,6.88
2023-05-02T03:15:54.334Z,6.28
2023-05-02T03:18:28.397Z,5.45
2023-05-02T03:20:55.804Z,5.30
2023-05-02T03:23:23.121Z,5.38
2023-05-02T03:25:52.915Z,6.63
2023-05-02T03:28:23.671Z,6.35
2023-05-02T03:30:52.125Z,8.32
2023-05-02T03:33:20.563Z,7.75
2023-05-02T03:35:48.195Z,5.30
2023-05-02T03:38:15.318Z,5.20
2023-05-02T03:40:44.612Z,5.35
2023-05-02T03:43:12.239Z,6.95
2023-05-02T03:45:39.789Z,7.30
2023-05-02T03:48:07.113Z,6.88
2023-05-02T03:50:34.918Z,8.30
2023-05-02T03:53:01.990Z,7.07
2023-05-02T03:55:43.106Z,6.43
2023-05-02T04:00:42.808Z,5.18
2023-05-02T04:03:10.899Z,6.45
2023-05-02T04:05:41.751Z,5.93
2023-05-02T04:08:10.943Z,5.00
2023-05-02T04:10:38.197Z,6.97
2023-05-02T04:13:08.366Z,6.10
2023-05-02T04:15:37.837Z,4.72
2023-05-02T04:18:05.697Z,6.72
2023-05-02T04:20:33.806Z,7.07
2023-05-02T04:23:01.015Z,7.30
2023-05-02T04:25:28.547Z,4.63
2023-05-02T04:27:58.055Z,6.18
2023-05-02T04:30:26.148Z,6.03
2023-05-02T04:32:59.587Z,4.30
2023-05-02T04:35:31.073Z,5.22
2023-05-02T04:37:58.115Z,6.05
2023-05-02T04:40:26.026Z,5.18
2023-05-02T04:43:00.132Z,7.05
2023-05-02T04:45:36.753Z,5.20
2023-05-02T04:48:07.042Z,6.80
2023-05-02T04:50:34.227Z,7.25
2023-05-02T04:53:01.584Z,12.43
2023-05-02T04:55:29.113Z,14.63
2023-05-02T04:57:56.240Z,8.90
2023-05-02T05:00:24.427Z,5.80
2023-05-02T05:02:51.906Z,5.32
2023-05-02T05:05:19.351Z,7.82
2023-05-02T05:07:46.486Z,7.60
2023-05-02T05:10:14.876Z,13.25
2023-05-02T05:12:47.475Z,7.30
2023-05-02T05:15:16.330Z,5.07
2023-05-02T05:17:48.582Z,5.05
2023-05-02T05:20:15.858Z,5.95
2023-05-02T05:22:43.189Z,5.00
2023-05-02T05:25:12.564Z,4.90
2023-05-02T05:27:40.638Z,4.55
2023-05-02T05:30:09.394Z,4.78
2023-05-02T05:32:37.911Z,5.63
2023-05-02T05:35:06.050Z,5.68
2023-05-02T05:37:33.789Z,4.55
2023-05-02T05:40:02.473Z,5.82
2023-05-02T05:42:30.930Z,6.68
2023-05-02T05:45:02.071Z,7.32
2023-05-02T05:47:32.294Z,5.07
2023-05-02T05:50:01.105Z,5.38
2023-05-02T05:52:33.457Z,5.28
2023-05-02T05:55:02.252Z,3.70
2023-05-02T05:57:33.245Z,3.75
2023-05-02T06:00:00.652Z,5.40
2023-05-02T06:02:28.316Z,3.67
2023-05-02T06:04:56.329Z,3.60
2023-05-02T06:07:25.262Z,3.60
2023-05-02T06:09:52.574Z,3.55
2023-05-02T06:12:21.558Z,4.20
2023-05-02T06:14:49.508Z,5.43
2023-05-02T06:17:16.922Z,4.03
2023-05-02T06:19:44.020Z,3.17
2023-05-02T06:22:14.347Z,4.32
2023-05-02T06:24:41.419Z,4.63
2023-05-02T06:27:08.460Z,7.22
2023-05-02T06:29:35.426Z,4.50
2023-05-02T06:32:02.554Z,4.72
2023-05-02T06:34:33.177Z,8.45
2023-05-02T06:37:00.273Z,5.43
2023-05-02T06:39:27.328Z,2.50
2023-05-02T06:41:58.442Z,2.13
2023-05-02T06:44:26.575Z,3.53
2023-05-02T06:46:53.570Z,3.53
2023-05-02T06:49:20.667Z,3.10
2023-05-02T06:51:47.799Z,5.70
2023-05-02T06:54:16.011Z,3.53
2023-05-02T06:56:43.482Z,2.95
2023-05-02T06:59:10.768Z,3.00
2023-05-02T07:01:37.972Z,3.08
2023-05-02T07:04:06.034Z,2.50
2023-05-02T07:06:33.731Z,3.75
2023-05-02T07:09:00.793Z,2.67
2023-05-02T07:11:28.237Z,3.80
2023-05-02T07:13:55.346Z,2.72
2023-05-02T07:16:22.446Z,4.00
2023-05-02T07:18:49.453Z,2.85
2023-05-02T07:21:18.288Z,3.75
2023-05-02T07:23:45.401Z,4.15
2023-05-02T07:26:12.519Z,4.40
2023-05-02T07:28:39.497Z,2.83
2023-05-02T07:31:06.497Z,2.70
2023-05-02T07:33:33.510Z,3.83
2023-05-02T07:36:02.221Z,3.15
2023-05-02T07:38:29.268Z,3.22
2023-05-02T07:41:00.235Z,4.03
2023-05-02T07:43:28.112Z,2.63
2023-05-02T07:45:55.485Z,4.47
2023-05-02T07:48:22.745Z,3.85
2023-05-02T07:50:49.766Z,3.97
2023-05-02T07:53:16.863Z,4.43
2023-05-02T07:55:43.890Z,2.95
2023-05-02T07:58:11.344Z,4.30
2023-05-02T08:00:38.536Z,3.72
2023-05-02T08:03:06.734Z,4.90
2023-05-02T08:05:34.178Z,3.85
2023-05-02T08:08:02.075Z,3.95
2023-05-02T08:10:29.100Z,3.30
2023-05-02T08:12:56.248Z,4.80
2023-05-02T08:15:23.405Z,5.85
2023-05-02T08:17:51.389Z,5.45
2023-05-02T08:20:18.525Z,5.40
2023-05-02T08:22:45.636Z,2.47
2023-05-02T08:25:12.610Z,3.35
2023-05-02T08:27:39.641Z,9.02
2023-05-02T08:30:07.744Z,3.10
2023-05-02T08:32:37.214Z,7.53
2023-05-02T08:35:04.520Z,4.93
2023-05-02T08:37:33.950Z,5.00
2023-05-02T08:40:01.589Z,4.68
2023-05-02T08:42:34.879Z,2.72
2023-05-02T08:45:02.648Z,3.65
2023-05-02T08:47:33.579Z,3.03
2023-05-02T08:50:02.169Z,2.50
2023-05-02T08:52:33.756Z,4.10
2023-05-02T08:55:02.539Z,4.22
2023-05-02T08:57:32.484Z,4.75
2023-05-02T08:59:59.826Z,3.05
2023-05-02T09:02:52.424Z,2.85
2023-05-02T09:05:23.386Z,4.20
2023-05-02T09:07:51.858Z,3.58
2023-05-02T09:10:19.091Z,3.55
2023-05-02T09:12:47.332Z,4.53
2023-05-02T09:15:20.575Z,4.05
2023-05-02T09:17:49.217Z,4.07
2023-05-02T09:20:16.969Z,3.20
2023-05-02T09:22:52.102Z,8.88
2023-05-02T09:25:22.666Z,4.25
2023-05-02T09:27:51.672Z,3.92
2023-05-02T09:30:23.417Z,3.83
2023-05-02T09:32:52.398Z,3.30
2023-05-02T09:35:26.135Z,5.15
2023-05-02T09:37:55.675Z,3.83
2023-05-02T09:40:24.497Z,4.10
2023-05-02T09:42:52.918Z,3.72
2023-05-02T09:45:26.772Z,4.32
2023-05-02T09:47:54.195Z,3.45
2023-05-02T09:50:41.545Z,7.10
2023-05-02T09:55:36.898Z,3.20
2023-05-02T09:58:04.243Z,3.30
2023-05-02T10:00:45.475Z,3.67
2023-05-02T10:03:17.844Z,3.58
2023-05-02T10:05:46.820Z,6.50
2023-05-02T10:08:14.638Z,2.88
2023-05-02T10:10:46.102Z,3.60
2023-05-02T10:13:15.094Z,3.42
2023-05-02T10:15:44.731Z,4.18
2023-05-02T10:18:21.779Z,4.30
2023-05-02T10:20:56.878Z,3.03
2023-05-02T10:23:27.185Z,2.88
2023-05-02T10:25:54.773Z,3.90
2023-05-02T10:28:21.990Z,3.55
2023-05-02T10:30:50.992Z,4.50
2023-05-02T10:33:20.650Z,2.50
2023-05-02T10:35:48.442Z,3.00
2023-05-02T10:38:21.093Z,4.53
2023-05-02T10:40:56.224Z,3.53
2023-05-02T10:43:25.952Z,3.92
2023-05-02T10:45:54.969Z,4.28
2023-05-02T10:48:26.872Z,3.47
2023-05-02T10:50:59.188Z,4.22
2023-05-02T10:53:36.952Z,3.63
2023-05-02T10:56:16.747Z,3.60
2023-05-02T10:58:45.795Z,2.60
2023-05-02T11:01:28.399Z,2.63
2023-05-02T11:04:00.719Z,4.95
2023-05-02T11:06:36.541Z,3.33
2023-05-02T11:09:15.933Z,5.20
2023-05-02T11:11:43.976Z,3.15
2023-05-02T11:14:32.569Z,4.00
2023-05-02T11:17:05.726Z,4.55
2023-05-02T11:19:39.006Z,3.65
2023-05-02T11:22:18.041Z,3.22
2023-05-02T11:24:50.232Z,3.30
2023-05-02T11:27:29.402Z,2.95
2023-05-02T11:30:01.100Z,4.82
2023-05-02T11:32:46.961Z,4.25
2023-05-02T11:35:26.205Z,2.90
2023-05-02T11:38:03.223Z,4.40
2023-05-02T11:42:59.487Z,3.95
2023-05-02T11:45:36.324Z,3.58
2023-05-02T11:50:46.695Z,3.75
2023-05-02T11:53:19.279Z,6.13
2023-05-02T11:55:51.417Z,5.47
2023-05-02T11:58:24.188Z,4.43
2023-05-02T12:00:52.800Z,2.90
2023-05-02T12:03:30.339Z,4.30
2023-05-02T12:06:11.648Z,2.60
2023-05-02T12:08:40.145Z,2.67
2023-05-02T12:11:07.527Z,5.35
2023-05-02T12:13:35.268Z,4.03
2023-05-02T12:16:02.897Z,3.88
2023-05-02T12:18:30.281Z,2.67
2023-05-02T12:20:57.457Z,5.63
2023-05-02T12:23:26.831Z,2.75
2023-05-02T12:25:53.889Z,3.05
2023-05-02T12:28:21.180Z,2.90
2023-05-02T12:30:50.467Z,3.75
2023-05-02T12:33:18.468Z,3.70
2023-05-02T12:35:48.237Z,4.90
2023-05-02T12:38:15.563Z,3.70
2023-05-02T12:40:52.914Z,8.20
2023-05-02T12:43:22.109Z,5.07
2023-05-02T12:45:50.934Z,4.45
2023-05-02T12:48:19.719Z,4.72
2023-05-02T12:50:46.915Z,4.45
2023-05-02T12:53:14.402Z,4.50
2023-05-02T12:55:41.879Z,4.13
2023-05-02T12:58:13.578Z,3.83
2023-05-02T13:00:43.720Z,3.95
2023-05-02T13:03:12.672Z,3.90
2023-05-02T13:05:39.745Z,3.15
2023-05-02T13:08:06.798Z,3.40
2023-05-02T13:10:33.836Z,3.25
2023-05-02T13:13:01.835Z,4.60
2023-05-02T13:15:29.566Z,5.03
2023-05-02T13:17:56.791Z,3.10
2023-05-02T13:20:23.958Z,3.65
2023-05-02T13:22:50.989Z,2.80
2023-05-02T13:25:18.026Z,3.17
2023-05-02T13:27:46.355Z,3.63
2023-05-02T13:30:13.776Z,2.78
2023-05-02T13:32:41.108Z,4.15
2023-05-02T13:35:09.222Z,4.03
2023-05-02T13:37:36.297Z,2.80
2023-05-02T13:40:05.170Z,3.08
2023-05-02T13:42:32.886Z,4.68
2023-05-02T13:45:00.117Z,5.07
2023-05-02T13:47:27.275Z,5.00
2023-05-02T13:49:54.443Z,5.18
2023-05-02T13:52:21.492Z,4.85
2023-05-02T13:54:48.550Z,4.88
2023-05-02T13:57:15.631Z,3.35
2023-05-02T13:59:42.729Z,11.55
2023-05-02T14:02:09.948Z,5.45
2023-05-02T14:04:37.214Z,5.00
2023-05-02T14:07:05.089Z,4.88
2023-05-02T14:09:32.140Z,4.70
2023-05-02T14:11:59.367Z,4.95
2023-05-02T14:14:26.524Z,7.40
2023-05-02T14:16:53.673Z,3.30
2023-05-02T14:19:20.837Z,4.85
2023-05-02T14:21:48.044Z,5.53
2023-05-02T14:24:16.541Z,5.15
2023-05-02T14:26:43.594Z,4.38
2023-05-02T14:29:10.880Z,2.75
2023-05-02T14:31:38.099Z,3.83
2023-05-02T14:34:07.469Z,3.80
2023-05-02T14:36:35.812Z,4.30
2023-05-02T14:39:02.990Z,3.45
2023-05-02T14:41:30.061Z,5.28
2023-05-02T14:43:57.215Z,5.78
2023-05-02T14:46:24.356Z,3.60
2023-05-02T14:48:51.557Z,5.05
2023-05-02T14:51:18.662Z,4.55
2023-05-02T14:53:48.089Z,4.90
2023-05-02T14:56:17.255Z,4.68
2023-05-02T14:58:44.457Z,3.92
2023-05-02T15:01:21.601Z,3.78
2023-05-02T15:04:05.368Z,3.92
2023-05-02T15:06:34.228Z,4.22
2023-05-02T15:09:01.966Z,3.60
2023-05-02T15:11:29.050Z,4.82
2023-05-02T15:13:58.425Z,5.32
2023-05-02T15:16:27.404Z,4.80
2023-05-02T15:18:55.055Z,5.32
2023-05-02T15:21:22.379Z,4.82
2023-05-02T15:23:49.458Z,3.35
2023-05-02T15:26:16.540Z,3.45
2023-05-02T15:28:43.607Z,4.82
2023-05-02T15:31:10.624Z,5.53
2023-05-02T15:33:38.796Z,3.65
2023-05-02T15:36:06.103Z,4.43
2023-05-02T15:38:36.990Z,5.30
2023-05-02T15:41:04.003Z,5.03
2023-05-02T15:43:30.991Z,4.32
2023-05-02T15:45:59.328Z,7.55
2023-05-02T15:48:35.572Z,3.38
2023-05-02T15:51:03.260Z,4.30
2023-05-02T15:53:30.415Z,6.53
2023-05-02T15:55:57.458Z,8.43
2023-05-02T15:58:24.592Z,8.13
2023-05-02T16:00:52.651Z,4.85
2023-05-02T16:03:20.045Z,5.20
2023-05-02T16:05:47.285Z,5.35
2023-05-02T16:08:14.366Z,4.22
2023-05-02T16:10:43.551Z,5.28
2023-05-02T16:13:10.986Z,3.15
2023-05-02T16:15:39.219Z,2.67
2023-05-02T16:18:06.448Z,3.45
2023-05-02T16:20:36.690Z,4.68
2023-05-02T16:23:04.406Z,3.45
2023-05-02T16:25:31.906Z,2.95
2023-05-02T16:27:58.987Z,5.10
2023-05-02T16:30:27.325Z,3.45
2023-05-02T16:32:54.951Z,5.05
2023-05-02T16:35:22.018Z,4.70
2023-05-02T16:37:49.582Z,4.28
2023-05-02T16:40:16.754Z,4.20
2023-05-02T16:42:43.814Z,4.65
2023-05-02T16:45:11.186Z,3.47
2023-05-02T16:47:38.638Z,5.30
2023-05-02T16:50:06.940Z,6.13
2023-05-02T16:52:36.654Z,3.80
2023-05-02T16:55:04.924Z,3.78
2023-05-02T16:57:32.292Z,6.22
2023-05-02T16:59:59.458Z,5.47
2023-05-02T17:02:26.768Z,3.80
2023-05-02T17:04:54.124Z,6.88
2023-05-02T17:07:21.176Z,5.25
2023-05-02T17:09:48.207Z,4.95
2023-05-02T17:12:15.808Z,7.63
2023-05-02T17:14:43.528Z,5.10
2023-05-02T17:17:10.917Z,7.00
2023-05-02T17:19:39.604Z,5.50
2023-05-02T17:22:07.038Z,6.63
2023-05-02T17:24:34.589Z,8.20
2023-05-02T17:27:02.936Z,6.43
2023-05-02T17:29:29.980Z,5.47
2023-05-02T17:32:02.851Z,5.00
2023-05-02T17:34:30.584Z,8.77
2023-05-02T17:36:57.631Z,12.48
2023-05-02T17:39:24.973Z,12.35
2023-05-02T17:41:52.144Z,4.70
2023-05-02T17:44:19.213Z,7.05
2023-05-02T17:46:46.719Z,9.38
2023-05-02T17:49:14.075Z,4.95
2023-05-02T17:51:41.199Z,5.80
2023-05-02T17:54:08.219Z,6.40
2023-05-02T17:56:36.868Z,6.43
2023-05-02T17:59:07.046Z,7.78
2023-05-02T18:01:34.114Z,5.68
2023-05-02T18:04:01.454Z,12.40
2023-05-02T18:06:28.756Z,5.60
2023-05-02T18:08:56.151Z,7.35
2023-05-02T18:11:24.413Z,9.60
2023-05-02T18:13:52.090Z,10.75
2023-05-02T18:16:19.513Z,6.95
2023-05-02T18:18:46.593Z,10.48
2023-05-02T18:21:21.398Z,10.23
2023-05-02T18:23:48.985Z,6.80
2023-05-02T18:26:16.023Z,7.95
2023-05-02T18:28:44.754Z,10.80
2023-05-02T18:31:18.147Z,9.73
2023-05-02T18:33:46.761Z,11.45
2023-05-02T18:36:15.812Z,14.80
2023-05-02T18:38:42.884Z,8.43
2023-05-02T18:41:10.103Z,9.35
2023-05-02T18:43:37.546Z,8.65
2023-05-02T18:46:04.769Z,13.63
2023-05-02T18:48:32.486Z,9.48
2023-05-02T18:50:59.486Z,9.52
2023-05-02T18:53:26.585Z,8.93
2023-05-02T18:55:54.308Z,11.40
2023-05-02T18:58:22.693Z,6.43
2023-05-02T19:00:49.859Z,9.30
2023-05-02T19:03:17.138Z,7.30
2023-05-02T19:05:44.614Z,13.07
2023-05-02T19:08:12.165Z,13.10
2023-05-02T19:10:39.229Z,8.35
2023-05-02T19:13:06.408Z,10.55
2023-05-02T19:15:34.094Z,11.27
2023-05-02T19:18:01.246Z,8.77
2023-05-02T19:20:29.931Z,10.80
2023-05-02T19:23:15.290Z,12.63
2023-05-02T19:25:46.178Z,12.18
2023-05-02T19:28:15.342Z,9.00
2023-05-02T19:30:45.374Z,9.25
2023-05-02T19:33:12.549Z,10.75
2023-05-02T19:35:39.699Z,9.00
2023-05-02T19:38:06.786Z,8.98
2023-05-02T19:40:33.834Z,7.70
2023-05-02T19:43:01.087Z,11.93
2023-05-02T19:45:28.317Z,7.60
2023-05-02T19:47:56.244Z,10.80
2023-05-02T19:50:25.788Z,9.25
2023-05-02T19:52:52.873Z,11.38
2023-05-02T19:55:20.953Z,12.48
2023-05-02T19:57:48.933Z,12.23
2023-05-02T20:00:16.380Z,10.75
2023-05-02T20:02:45.429Z,9.40
2023-05-02T20:05:12.662Z,13.55
2023-05-02T20:07:39.674Z,13.23
2023-05-02T20:10:07.561Z,10.55
2023-05-02T20:12:34.639Z,10.93
2023-05-02T20:15:02.410Z,6.22
2023-05-02T20:17:32.475Z,8.98
2023-05-02T20:19:59.823Z,8.55
2023-05-02T20:22:27.059Z,9.05
2023-05-02T20:24:54.094Z,10.32
2023-05-02T20:27:21.059Z,10.02
2023-05-02T20:29:48.120Z,9.70
2023-05-02T20:32:17.987Z,7.78
2023-05-02T20:34:45.230Z,8.23
2023-05-02T20:37:13.703Z,6.95
2023-05-02T20:39:40.757Z,11.15
2023-05-02T20:42:08.718Z,7.13
2023-05-02T20:44:36.624Z,8.55
2023-05-02T20:47:07.101Z,9.02
2023-05-02T20:49:34.196Z,10.80
2023-05-02T20:52:05.632Z,10.32
2023-05-02T20:54:32.935Z,12.77
2023-05-02T20:57:00.060Z,11.48
2023-05-02T20:59:27.215Z,9.35
2023-05-02T21:01:54.429Z,7.75
2023-05-02T21:04:21.916Z,8.55
2023-05-02T21:06:49.140Z,6.00
2023-05-02T21:09:17.169Z,8.00
2023-05-02T21:11:44.675Z,8.32
2023-05-02T21:14:11.979Z,7.18
2023-05-02T21:16:39.257Z,7.72
2023-05-02T21:19:06.380Z,10.38
2023-05-02T21:21:33.620Z,9.98
2023-05-02T21:24:01.507Z,9.35
2023-05-02T21:26:28.615Z,7.85
2023-05-02T21:28:55.717Z,8.88
2023-05-02T21:31:22.838Z,9.18
2023-05-02T21:33:49.941Z,10.00
2023-05-02T21:36:16.940Z,8.75
2023-05-02T21:38:43.934Z,9.32
2023-05-02T21:41:10.987Z,9.40
2023-05-02T21:43:39.637Z,9.27
2023-05-02T21:46:07.005Z,8.98
2023-05-02T21:48:34.400Z,8.73
2023-05-02T21:51:05.402Z,9.45
2023-05-02T21:53:32.500Z,9.98
2023-05-02T21:55:59.489Z,9.85
2023-05-02T21:58:26.815Z,7.55
2023-05-02T22:00:53.877Z,8.75
2023-05-02T22:03:21.360Z,7.00
2023-05-02T22:05:49.955Z,10.35
2023-05-02T22:08:17.763Z,6.38
2023-05-02T22:10:45.069Z,7.25
2023-05-02T22:13:13.970Z,9.15
2023-05-02T22:15:45.767Z,6.60
2023-05-02T22:18:17.894Z,7.72
2023-05-02T22:20:45.462Z,8.93
2023-05-02T22:23:12.992Z,8.15
2023-05-02T22:25:42.277Z,7.65
2023-05-02T22:28:11.654Z,8.50
2023-05-02T22:30:39.395Z,9.02
2023-05-02T22:33:07.689Z,6.93
2023-05-02T22:35:34.851Z,7.50
2023-05-02T22:38:02.430Z,9.32
2023-05-02T22:40:33.705Z,9.27
2023-05-02T22:43:01.114Z,9.20
2023-05-02T22:45:28.281Z,10.55
2023-05-02T22:47:55.806Z,7.95
2023-05-02T22:50:23.470Z,7.72
2023-05-02T22:52:51.215Z,9.88
2023-05-02T22:55:18.244Z,8.27
2023-05-02T22:57:45.539Z,12.85
2023-05-02T23:00:13.188Z,14.02
2023-05-02T23:02:40.317Z,9.07
2023-05-02T23:05:07.824Z,11.13
2023-05-02T23:07:35.336Z,6.03
2023-05-02T23:10:02.434Z,8.13
2023-05-02T23:12:31.623Z,14.90
2023-05-02T23:14:58.685Z,8.30
2023-05-02T23:17:25.882Z,8.65
2023-05-02T23:19:53.451Z,13.95
2023-05-02T23:22:20.452Z,7.72
2023-05-02T23:24:48.097Z,7.32
2023-05-02T23:27:15.344Z,7.50
2023-05-02T23:29:42.576Z,9.13
2023-05-02T23:32:09.680Z,10.52
2023-05-02T23:34:37.196Z,8.75
2023-05-02T23:37:06.243Z,8.68
2023-05-02T23:39:33.585Z,8.77
2023-05-02T23:42:01.985Z,8.25
2023-05-02T23:44:29.064Z,8.05
2023-05-02T23:46:56.140Z,10.13
2023-05-02T23:49:23.201Z,6.35
2023-05-02T23:51:50.232Z,10.02
2023-05-02T23:54:17.313Z,10.73
2023-05-02T23:56:44.327Z,8.63
2023-05-02T23:59:11.487Z,9.82
